CPA3701 VHHH-OMDW
Flight info
| Callsign | CPA3701 |
|---|---|
| Flight time | N/A |
| Altitude | 32000 |
| Route | PECAN V10 SIKOU/K0909S0980 R339 BSE A599 LINSO/N0482F320 A599 CHILA/N0482F340 A599 CTG B465 CEA A791 BPL L639 ISLIL/N0469F360 L639 RASKI L301 RAGMA N571 VUSET A454 PASOV M564 VAXAS/N0389F240 M564 UMAMI |
| Aircraft | B748/H-SDE3FGHIJ7M1M2RWXY/LB1 |
Departure
| Time | N/A |
|---|---|
| Airport | Hong Kong International Airport (VHHH) |
Arrival
| Time | 2026-04-22 14:05 |
|---|---|
| Airport | Al Maktoum International Airport (OMDW) |
| Time | Latitude | Longitude | Altitude | Speed | Heading |
|---|---|---|---|---|---|
| 2026-04-22 12:34 | 22.96108 | 66.16905 | 33787 ft | 468 kts | 269° |
| 2026-04-22 12:34 | 22.96114 | 66.13373 | 33787 ft | 468 kts | 269° |
| 2026-04-22 12:34 | 22.96123 | 66.06279 | 34131 ft | 472 kts | 269° |
| 2026-04-22 12:35 | 22.96126 | 66.02711 | 34419 ft | 474 kts | 269° |
| 2026-04-22 12:35 | 22.96128 | 65.99138 | 34766 ft | 473 kts | 269° |
| 2026-04-22 12:35 | 22.96130 | 65.95618 | 35142 ft | 472 kts | 269° |
| 2026-04-22 12:35 | 22.96131 | 65.92014 | 35486 ft | 471 kts | 269° |
| 2026-04-22 12:36 | 22.96131 | 65.88462 | 35724 ft | 471 kts | 270° |
| 2026-04-22 12:36 | 22.96130 | 65.84957 | 35778 ft | 471 kts | 269° |
| 2026-04-22 12:36 | 22.96127 | 65.77808 | 35787 ft | 470 kts | 269° |
| 2026-04-22 12:37 | 22.96120 | 65.70759 | 35787 ft | 470 kts | 269° |
| 2026-04-22 12:37 | 22.96110 | 65.63662 | 35787 ft | 470 kts | 269° |
| 2026-04-22 12:38 | 22.96097 | 65.56567 | 35787 ft | 470 kts | 269° |
| 2026-04-22 12:38 | 22.96080 | 65.49471 | 35787 ft | 470 kts | 269° |
| 2026-04-22 12:39 | 22.96054 | 65.39979 | 35787 ft | 470 kts | 269° |
| 2026-04-22 12:40 | 22.96030 | 65.32923 | 35787 ft | 470 kts | 269° |
| 2026-04-22 12:40 | 22.96003 | 65.25786 | 35787 ft | 470 kts | 269° |
| 2026-04-22 12:41 | 22.95972 | 65.17542 | 35787 ft | 470 kts | 270° |
| 2026-04-22 12:41 | 22.95960 | 65.11593 | 35787 ft | 470 kts | 269° |
| 2026-04-22 12:42 | 22.95921 | 65.04500 | 35787 ft | 470 kts | 269° |
| 2026-04-22 12:42 | 22.95875 | 64.97450 | 35787 ft | 470 kts | 269° |
| 2026-04-22 12:43 | 22.95826 | 64.90357 | 35787 ft | 470 kts | 269° |
| 2026-04-22 12:43 | 22.95825 | 64.83262 | 35787 ft | 470 kts | 272° |
| 2026-04-22 12:44 | 22.96429 | 64.76197 | 35787 ft | 471 kts | 276° |
| 2026-04-22 12:44 | 22.97243 | 64.69155 | 35787 ft | 471 kts | 276° |
| 2026-04-22 12:45 | 22.98009 | 64.62099 | 35787 ft | 471 kts | 276° |
| 2026-04-22 12:45 | 22.98753 | 64.55042 | 35787 ft | 471 kts | 276° |
| 2026-04-22 12:46 | 22.99490 | 64.47984 | 35787 ft | 471 kts | 276° |
| 2026-04-22 12:46 | 23.00247 | 64.40935 | 35787 ft | 471 kts | 276° |
| 2026-04-22 12:47 | 23.00993 | 64.33876 | 35787 ft | 471 kts | 276° |
| 2026-04-22 12:47 | 23.01728 | 64.26818 | 35787 ft | 471 kts | 276° |
| 2026-04-22 12:48 | 23.02467 | 64.19759 | 35787 ft | 471 kts | 276° |
| 2026-04-22 12:48 | 23.03204 | 64.12704 | 35787 ft | 471 kts | 276° |
| 2026-04-22 12:49 | 23.03922 | 64.05642 | 35787 ft | 471 kts | 276° |
| 2026-04-22 12:49 | 23.04630 | 63.98622 | 35787 ft | 470 kts | 276° |
| 2026-04-22 12:50 | 23.05341 | 63.91558 | 35787 ft | 470 kts | 276° |
| 2026-04-22 12:50 | 23.06055 | 63.84499 | 35787 ft | 470 kts | 276° |
| 2026-04-22 12:51 | 23.06791 | 63.77436 | 35787 ft | 470 kts | 276° |
| 2026-04-22 12:51 | 23.07519 | 63.70375 | 35787 ft | 470 kts | 276° |
| 2026-04-22 12:52 | 23.08110 | 63.64593 | 35787 ft | 470 kts | 276° |
| 2026-04-22 12:52 | 23.08829 | 63.57534 | 35787 ft | 470 kts | 276° |
| 2026-04-22 12:53 | 23.09545 | 63.50469 | 35787 ft | 470 kts | 276° |
| 2026-04-22 12:53 | 23.10289 | 63.43411 | 35787 ft | 470 kts | 276° |
| 2026-04-22 12:54 | 23.11023 | 63.36346 | 35787 ft | 470 kts | 276° |
| 2026-04-22 12:54 | 23.11743 | 63.29291 | 35787 ft | 470 kts | 276° |
| 2026-04-22 12:55 | 23.12459 | 63.22222 | 35787 ft | 470 kts | 276° |
| 2026-04-22 12:55 | 23.13170 | 63.15161 | 35787 ft | 470 kts | 276° |
| 2026-04-22 12:56 | 23.13878 | 63.08095 | 35787 ft | 470 kts | 276° |
| 2026-04-22 12:56 | 23.14582 | 63.01030 | 35787 ft | 470 kts | 275° |
| 2026-04-22 12:57 | 23.15282 | 62.93968 | 35787 ft | 470 kts | 275° |
| 2026-04-22 12:57 | 23.15980 | 62.86901 | 35787 ft | 470 kts | 275° |
| 2026-04-22 12:58 | 23.16674 | 62.79838 | 35787 ft | 470 kts | 275° |
| 2026-04-22 12:58 | 23.17366 | 62.72766 | 35787 ft | 470 kts | 275° |
| 2026-04-22 12:59 | 23.18053 | 62.65702 | 35787 ft | 470 kts | 275° |
| 2026-04-22 12:59 | 23.18739 | 62.58629 | 35787 ft | 470 kts | 275° |
| 2026-04-22 13:00 | 23.19421 | 62.51559 | 35787 ft | 470 kts | 275° |
| 2026-04-22 13:00 | 23.20099 | 62.44491 | 35787 ft | 470 kts | 275° |
| 2026-04-22 13:01 | 23.20774 | 62.37425 | 35787 ft | 470 kts | 275° |
| 2026-04-22 13:01 | 23.21446 | 62.30358 | 35787 ft | 470 kts | 275° |
| 2026-04-22 13:02 | 23.22115 | 62.23283 | 35787 ft | 470 kts | 275° |
| 2026-04-22 13:02 | 23.22781 | 62.16211 | 35787 ft | 470 kts | 275° |
| 2026-04-22 13:03 | 23.23444 | 62.09142 | 35787 ft | 470 kts | 275° |
| 2026-04-22 13:03 | 23.24103 | 62.02066 | 35787 ft | 470 kts | 275° |
| 2026-04-22 13:04 | 23.24760 | 61.94996 | 35787 ft | 470 kts | 275° |
| 2026-04-22 13:04 | 23.25412 | 61.87928 | 35787 ft | 470 kts | 275° |
| 2026-04-22 13:05 | 23.26063 | 61.80849 | 35787 ft | 470 kts | 275° |
| 2026-04-22 13:05 | 23.26705 | 61.73823 | 35787 ft | 470 kts | 275° |
| 2026-04-22 13:06 | 23.27348 | 61.66749 | 35787 ft | 470 kts | 275° |
| 2026-04-22 13:06 | 23.27989 | 61.59678 | 35787 ft | 470 kts | 275° |
| 2026-04-22 13:07 | 23.28629 | 61.52601 | 35787 ft | 470 kts | 275° |
| 2026-04-22 13:07 | 23.29281 | 61.45524 | 35787 ft | 470 kts | 275° |
| 2026-04-22 13:08 | 23.29907 | 61.38450 | 35787 ft | 470 kts | 275° |
| 2026-04-22 13:08 | 23.30527 | 61.31373 | 35787 ft | 470 kts | 275° |
| 2026-04-22 13:09 | 23.31146 | 61.24292 | 35787 ft | 470 kts | 275° |
| 2026-04-22 13:09 | 23.31768 | 61.17218 | 35787 ft | 470 kts | 275° |
| 2026-04-22 13:10 | 23.32644 | 61.10175 | 35787 ft | 470 kts | 277° |
| 2026-04-22 13:10 | 23.33560 | 61.03131 | 35787 ft | 470 kts | 277° |
| 2026-04-22 13:11 | 23.34468 | 60.96085 | 35787 ft | 470 kts | 277° |
| 2026-04-22 13:11 | 23.35359 | 60.89038 | 35787 ft | 470 kts | 277° |
| 2026-04-22 13:12 | 23.36230 | 60.81984 | 35787 ft | 470 kts | 277° |
| 2026-04-22 13:12 | 23.37096 | 60.74934 | 35787 ft | 470 kts | 277° |
| 2026-04-22 13:13 | 23.37961 | 60.67883 | 35787 ft | 470 kts | 277° |
| 2026-04-22 13:13 | 23.39238 | 60.62142 | 35789 ft | 471 kts | 287° |
| 2026-04-22 13:14 | 23.41458 | 60.55750 | 35788 ft | 472 kts | 291° |
| 2026-04-22 13:14 | 23.43959 | 60.49139 | 35787 ft | 472 kts | 291° |
| 2026-04-22 13:15 | 23.46406 | 60.42516 | 35787 ft | 472 kts | 290° |
| 2026-04-22 13:15 | 23.48846 | 60.35832 | 35787 ft | 472 kts | 290° |
| 2026-04-22 13:16 | 23.51265 | 60.29184 | 35787 ft | 472 kts | 291° |
| 2026-04-22 13:16 | 23.53686 | 60.22599 | 35787 ft | 472 kts | 290° |
| 2026-04-22 13:17 | 23.56109 | 60.15951 | 35787 ft | 472 kts | 290° |
| 2026-04-22 13:17 | 23.58522 | 60.09303 | 35787 ft | 472 kts | 290° |
| 2026-04-22 13:18 | 23.60916 | 60.02685 | 35776 ft | 462 kts | 291° |
| 2026-04-22 13:18 | 23.63266 | 59.96186 | 35767 ft | 455 kts | 291° |
| 2026-04-22 13:19 | 23.65587 | 59.89758 | 35768 ft | 456 kts | 291° |
| 2026-04-22 13:19 | 23.67911 | 59.83309 | 35769 ft | 457 kts | 291° |
| 2026-04-22 13:20 | 23.70216 | 59.76902 | 35769 ft | 457 kts | 291° |
| 2026-04-22 13:20 | 23.72160 | 59.71491 | 35770 ft | 457 kts | 291° |
| 2026-04-22 13:21 | 23.74479 | 59.65026 | 35771 ft | 458 kts | 291° |
| 2026-04-22 13:21 | 23.77177 | 59.57492 | 35771 ft | 458 kts | 291° |
| 2026-04-22 13:22 | 23.79119 | 59.52061 | 35772 ft | 459 kts | 291° |
| 2026-04-22 13:22 | 23.81825 | 59.44516 | 35773 ft | 459 kts | 291° |
| 2026-04-22 13:23 | 23.83773 | 59.39078 | 35769 ft | 454 kts | 291° |
| 2026-04-22 13:23 | 23.86426 | 59.31610 | 35757 ft | 452 kts | 291° |
| 2026-04-22 13:24 | 23.88326 | 59.26247 | 35758 ft | 452 kts | 291° |
| 2026-04-22 13:24 | 23.90594 | 59.19840 | 35758 ft | 452 kts | 291° |
| 2026-04-22 13:25 | 23.92863 | 59.13428 | 35758 ft | 452 kts | 291° |
| 2026-04-22 13:25 | 23.94971 | 59.06948 | 35758 ft | 452 kts | 289° |
| 2026-04-22 13:26 | 23.97028 | 59.00446 | 35757 ft | 453 kts | 290° |
| 2026-04-22 13:26 | 23.99099 | 58.93948 | 35758 ft | 453 kts | 290° |
| 2026-04-22 13:27 | 24.01199 | 58.87454 | 35758 ft | 453 kts | 290° |
| 2026-04-22 13:27 | 24.03284 | 58.80959 | 35758 ft | 453 kts | 290° |
| 2026-04-22 13:28 | 24.05354 | 58.74452 | 35757 ft | 453 kts | 289° |
| 2026-04-22 13:28 | 24.07421 | 58.67941 | 35758 ft | 453 kts | 289° |
| 2026-04-22 13:29 | 24.09486 | 58.61431 | 35758 ft | 453 kts | 289° |
| 2026-04-22 13:29 | 24.11550 | 58.54920 | 35758 ft | 453 kts | 289° |
| 2026-04-22 13:30 | 24.13611 | 58.48402 | 35758 ft | 453 kts | 289° |
| 2026-04-22 13:30 | 24.15663 | 58.41893 | 35757 ft | 453 kts | 289° |
| 2026-04-22 13:31 | 24.17717 | 58.35364 | 35758 ft | 453 kts | 289° |
| 2026-04-22 13:31 | 24.19766 | 58.28839 | 35758 ft | 453 kts | 289° |
| 2026-04-22 13:32 | 24.21811 | 58.22322 | 35758 ft | 453 kts | 289° |
| 2026-04-22 13:32 | 24.23885 | 58.15801 | 35757 ft | 453 kts | 289° |
| 2026-04-22 13:33 | 24.25941 | 58.09277 | 35743 ft | 453 kts | 289° |
| 2026-04-22 13:33 | 24.27991 | 58.02740 | 35728 ft | 453 kts | 289° |
| 2026-04-22 13:34 | 24.30034 | 57.96207 | 35728 ft | 453 kts | 289° |
| 2026-04-22 13:34 | 24.32074 | 57.89675 | 35728 ft | 453 kts | 289° |
| 2026-04-22 13:35 | 24.34120 | 57.83138 | 35728 ft | 453 kts | 289° |
| 2026-04-22 13:35 | 24.36164 | 57.76607 | 35727 ft | 449 kts | 289° |
| 2026-04-22 13:35 | 24.37151 | 57.73424 | 35722 ft | 434 kts | 289° |
| 2026-04-22 13:36 | 24.38108 | 57.70333 | 35720 ft | 419 kts | 289° |
| 2026-04-22 13:36 | 24.39029 | 57.67354 | 35717 ft | 406 kts | 289° |
| 2026-04-22 13:36 | 24.39932 | 57.64427 | 35716 ft | 407 kts | 289° |
| 2026-04-22 13:37 | 24.41757 | 57.58513 | 35710 ft | 410 kts | 289° |
| 2026-04-22 13:37 | 24.42673 | 57.55546 | 35458 ft | 410 kts | 289° |
| 2026-04-22 13:37 | 24.43584 | 57.52596 | 35110 ft | 408 kts | 289° |
| 2026-04-22 13:37 | 24.44493 | 57.49644 | 34666 ft | 407 kts | 289° |
| 2026-04-22 13:38 | 24.45395 | 57.46719 | 34265 ft | 403 kts | 289° |
| 2026-04-22 13:38 | 24.47150 | 57.41011 | 33663 ft | 393 kts | 289° |
| 2026-04-22 13:38 | 24.48022 | 57.38169 | 33213 ft | 391 kts | 288° |
| 2026-04-22 13:39 | 24.48888 | 57.35347 | 32784 ft | 389 kts | 288° |
| 2026-04-22 13:39 | 24.49746 | 57.32546 | 32362 ft | 386 kts | 288° |
| 2026-04-22 13:39 | 24.50597 | 57.29763 | 31939 ft | 383 kts | 288° |
| 2026-04-22 13:39 | 24.51441 | 57.27005 | 31519 ft | 380 kts | 288° |
| 2026-04-22 13:40 | 24.52280 | 57.24261 | 31099 ft | 377 kts | 288° |
| 2026-04-22 13:40 | 24.53112 | 57.21542 | 30679 ft | 375 kts | 288° |
| 2026-04-22 13:40 | 24.53937 | 57.18839 | 30272 ft | 372 kts | 288° |
| 2026-04-22 13:40 | 24.54776 | 57.16161 | 29854 ft | 370 kts | 289° |
| 2026-04-22 13:41 | 24.55608 | 57.13497 | 29426 ft | 369 kts | 288° |
| 2026-04-22 13:41 | 24.56432 | 57.10827 | 28991 ft | 368 kts | 288° |
| 2026-04-22 13:41 | 24.57246 | 57.08171 | 28554 ft | 367 kts | 288° |
| 2026-04-22 13:41 | 24.58055 | 57.05515 | 28117 ft | 365 kts | 288° |
| 2026-04-22 13:42 | 24.58858 | 57.02877 | 27682 ft | 364 kts | 288° |
| 2026-04-22 13:42 | 24.59657 | 57.00245 | 27245 ft | 362 kts | 288° |
| 2026-04-22 13:42 | 24.60453 | 56.97623 | 26809 ft | 361 kts | 288° |
| 2026-04-22 13:42 | 24.61246 | 56.95006 | 26374 ft | 360 kts | 288° |
| 2026-04-22 13:43 | 24.62037 | 56.92397 | 25940 ft | 359 kts | 288° |
| 2026-04-22 13:43 | 24.62823 | 56.89804 | 25507 ft | 358 kts | 288° |
| 2026-04-22 13:43 | 24.63610 | 56.87212 | 25073 ft | 357 kts | 288° |
| 2026-04-22 13:43 | 24.64353 | 56.84616 | 24641 ft | 355 kts | 284° |
| 2026-04-22 13:44 | 24.64887 | 56.81969 | 24219 ft | 354 kts | 280° |
| 2026-04-22 13:44 | 24.65287 | 56.79312 | 23797 ft | 352 kts | 278° |
| 2026-04-22 13:44 | 24.65620 | 56.76654 | 23382 ft | 350 kts | 277° |
| 2026-04-22 13:44 | 24.65953 | 56.74005 | 22972 ft | 349 kts | 277° |
| 2026-04-22 13:45 | 24.66298 | 56.71368 | 22563 ft | 347 kts | 278° |
| 2026-04-22 13:45 | 24.66649 | 56.68755 | 22160 ft | 345 kts | 278° |
| 2026-04-22 13:45 | 24.67001 | 56.66152 | 21756 ft | 343 kts | 278° |
| 2026-04-22 13:45 | 24.67354 | 56.63562 | 21354 ft | 342 kts | 278° |
| 2026-04-22 13:46 | 24.67705 | 56.60985 | 20951 ft | 340 kts | 278° |
| 2026-04-22 13:46 | 24.68055 | 56.58418 | 20547 ft | 338 kts | 278° |
| 2026-04-22 13:46 | 24.68404 | 56.55866 | 20147 ft | 337 kts | 278° |
| 2026-04-22 13:46 | 24.68750 | 56.53329 | 19749 ft | 335 kts | 278° |
| 2026-04-22 13:47 | 24.69098 | 56.50804 | 19352 ft | 333 kts | 278° |
| 2026-04-22 13:47 | 24.69445 | 56.48291 | 18958 ft | 331 kts | 278° |
| 2026-04-22 13:47 | 24.69786 | 56.45794 | 18562 ft | 330 kts | 278° |
| 2026-04-22 13:47 | 24.70123 | 56.43301 | 18168 ft | 328 kts | 278° |
| 2026-04-22 13:48 | 24.70457 | 56.40829 | 17773 ft | 327 kts | 278° |
| 2026-04-22 13:48 | 24.70789 | 56.38362 | 17381 ft | 325 kts | 278° |
| 2026-04-22 13:48 | 24.71119 | 56.35911 | 16990 ft | 324 kts | 278° |
| 2026-04-22 13:48 | 24.71449 | 56.33465 | 16602 ft | 322 kts | 278° |
| 2026-04-22 13:49 | 24.71853 | 56.31051 | 16205 ft | 320 kts | 286° |
| 2026-04-22 13:49 | 24.72641 | 56.28768 | 15827 ft | 319 kts | 294° |
| 2026-04-22 13:49 | 24.73633 | 56.26594 | 15454 ft | 317 kts | 296° |
| 2026-04-22 13:49 | 24.74357 | 56.24348 | 15311 ft | 308 kts | 283° |
| 2026-04-22 13:50 | 24.74557 | 56.22799 | 15086 ft | 311 kts | 274° |
| 2026-04-22 13:50 | 24.74703 | 56.19613 | 14551 ft | 311 kts | 273° |
| 2026-04-22 13:50 | 24.74789 | 56.17254 | 14355 ft | 304 kts | 272° |
| 2026-04-22 13:50 | 24.74872 | 56.14923 | 14117 ft | 309 kts | 272° |
| 2026-04-22 13:51 | 24.74958 | 56.12559 | 13737 ft | 309 kts | 273° |
| 2026-04-22 13:51 | 24.75043 | 56.10229 | 13370 ft | 308 kts | 273° |
| 2026-04-22 13:51 | 24.75130 | 56.07882 | 13004 ft | 307 kts | 273° |
| 2026-04-22 13:51 | 24.75216 | 56.05546 | 12638 ft | 305 kts | 273° |
| 2026-04-22 13:52 | 24.75302 | 56.03215 | 12273 ft | 304 kts | 273° |
| 2026-04-22 13:52 | 24.75387 | 56.00898 | 11903 ft | 303 kts | 273° |
| 2026-04-22 13:52 | 24.75472 | 55.98585 | 11536 ft | 302 kts | 273° |
| 2026-04-22 13:52 | 24.75557 | 55.96283 | 11173 ft | 301 kts | 273° |
| 2026-04-22 13:53 | 24.75640 | 55.93995 | 10813 ft | 299 kts | 273° |
| 2026-04-22 13:53 | 24.75723 | 55.91712 | 10472 ft | 297 kts | 274° |
| 2026-04-22 13:53 | 24.75805 | 55.89474 | 10331 ft | 288 kts | 274° |
| 2026-04-22 13:53 | 24.75883 | 55.87301 | 10138 ft | 282 kts | 274° |
| 2026-04-22 13:54 | 24.75961 | 55.85155 | 9808 ft | 280 kts | 273° |
| 2026-04-22 13:54 | 24.76037 | 55.83017 | 9483 ft | 279 kts | 273° |
| 2026-04-22 13:54 | 24.76113 | 55.80895 | 9163 ft | 277 kts | 273° |
| 2026-04-22 13:54 | 24.76162 | 55.79510 | 8954 ft | 276 kts | 273° |
| 2026-04-22 13:55 | 24.76237 | 55.77402 | 8639 ft | 275 kts | 273° |
| 2026-04-22 13:55 | 24.76311 | 55.75310 | 8330 ft | 273 kts | 273° |
| 2026-04-22 13:55 | 24.76388 | 55.73228 | 8021 ft | 271 kts | 273° |
| 2026-04-22 13:55 | 24.76471 | 55.71155 | 7714 ft | 270 kts | 273° |
| 2026-04-22 13:56 | 24.76549 | 55.69099 | 7408 ft | 268 kts | 273° |
| 2026-04-22 13:56 | 24.76622 | 55.67057 | 7105 ft | 267 kts | 272° |
| 2026-04-22 13:56 | 24.76693 | 55.65026 | 6805 ft | 265 kts | 272° |
| 2026-04-22 13:56 | 24.76762 | 55.63005 | 6505 ft | 263 kts | 272° |
| 2026-04-22 13:57 | 24.76830 | 55.60984 | 6083 ft | 267 kts | 272° |
| 2026-04-22 13:57 | 24.76899 | 55.58910 | 5514 ft | 276 kts | 272° |
| 2026-04-22 13:57 | 24.76970 | 55.56790 | 5101 ft | 278 kts | 272° |
| 2026-04-22 13:57 | 24.77038 | 55.54696 | 4974 ft | 269 kts | 272° |
| 2026-04-22 13:58 | 24.77106 | 55.52664 | 4750 ft | 264 kts | 271° |
| 2026-04-22 13:58 | 24.77172 | 55.50634 | 4333 ft | 266 kts | 270° |
| 2026-04-22 13:58 | 24.77237 | 55.48636 | 4184 ft | 254 kts | 270° |
| 2026-04-22 13:58 | 24.77298 | 55.46746 | 4079 ft | 240 kts | 270° |
| 2026-04-22 13:59 | 24.77356 | 55.44966 | 3978 ft | 225 kts | 270° |
| 2026-04-22 13:59 | 24.77410 | 55.43292 | 3886 ft | 217 kts | 270° |
| 2026-04-22 13:59 | 24.77464 | 55.41652 | 3839 ft | 211 kts | 270° |
| 2026-04-22 13:59 | 24.77515 | 55.40081 | 3734 ft | 194 kts | 270° |
| 2026-04-22 14:00 | 24.77577 | 55.38617 | 3644 ft | 199 kts | 275° |
| 2026-04-22 14:00 | 24.77940 | 55.37152 | 3454 ft | 198 kts | 290° |
| 2026-04-22 14:00 | 24.78596 | 55.35820 | 3244 ft | 199 kts | 298° |
| 2026-04-22 14:00 | 24.79350 | 55.34553 | 3055 ft | 196 kts | 301° |
| 2026-04-22 14:01 | 24.80103 | 55.33300 | 2943 ft | 198 kts | 300° |
| 2026-04-22 14:01 | 24.80834 | 55.32032 | 2687 ft | 192 kts | 300° |
| 2026-04-22 14:01 | 24.81528 | 55.30799 | 2567 ft | 183 kts | 300° |
| 2026-04-22 14:01 | 24.82181 | 55.29625 | 2401 ft | 180 kts | 300° |
| 2026-04-22 14:02 | 24.82834 | 55.28449 | 2248 ft | 179 kts | 300° |
| 2026-04-22 14:02 | 24.83474 | 55.27294 | 2122 ft | 171 kts | 301° |
| 2026-04-22 14:02 | 24.84066 | 55.26226 | 1903 ft | 158 kts | 301° |
| 2026-04-22 14:02 | 24.84439 | 55.25552 | 1743 ft | 154 kts | 302° |
| 2026-04-22 14:03 | 24.84988 | 55.24561 | 1531 ft | 150 kts | 302° |
| 2026-04-22 14:03 | 24.85534 | 55.23575 | 1330 ft | 153 kts | 303° |
| 2026-04-22 14:03 | 24.86271 | 55.22197 | 1065 ft | 158 kts | 304° |
| 2026-04-22 14:03 | 24.86870 | 55.21161 | 869 ft | 162 kts | 305° |
| 2026-04-22 14:04 | 24.87260 | 55.20457 | 708 ft | 163 kts | 304° |
| 2026-04-22 14:04 | 24.87846 | 55.19399 | 491 ft | 160 kts | 304° |
| 2026-04-22 14:04 | 24.88420 | 55.18346 | 277 ft | 160 kts | 304° |
| 2026-04-22 14:04 | 24.88995 | 55.17329 | 188 ft | 148 kts | 299° |
| 2026-04-22 14:05 | 24.89465 | 55.16479 | 185 ft | 106 kts | 301° |
| 2026-04-22 14:05 | 24.89759 | 55.15946 | 185 ft | 59 kts | 301° |
| 2026-04-22 14:05 | 24.90002 | 55.15469 | 185 ft | 28 kts | 276° |
| 2026-04-22 14:06 | 24.90004 | 55.15306 | 185 ft | 19 kts | 269° |
| 2026-04-22 14:06 | 24.90004 | 55.15216 | 185 ft | 4 kts | 270° |
| 2026-04-22 14:06 | 24.90005 | 55.15200 | 185 ft | 0 kts | 270° |
| 2026-04-22 14:07 | 24.90005 | 55.15198 | 185 ft | 0 kts | 270° |
| 2026-04-22 14:07 | 24.90005 | 55.15197 | 185 ft | 0 kts | 270° |
| 2026-04-22 14:08 | 24.90005 | 55.15187 | 185 ft | 6 kts | 270° |
| 2026-04-22 14:08 | 24.90004 | 55.15116 | 185 ft | 10 kts | 264° |
| 2026-04-22 14:08 | 24.89972 | 55.15055 | 185 ft | 9 kts | 222° |
| 2026-04-22 14:08 | 24.89920 | 55.15013 | 185 ft | 9 kts | 212° |
| 2026-04-22 14:09 | 24.89867 | 55.14977 | 185 ft | 9 kts | 211° |
| 2026-04-22 14:09 | 24.89799 | 55.14933 | 185 ft | 12 kts | 211° |
| 2026-04-22 14:09 | 24.89730 | 55.14887 | 185 ft | 11 kts | 211° |
| 2026-04-22 14:09 | 24.89667 | 55.14912 | 185 ft | 11 kts | 122° |
| 2026-04-22 14:10 | 24.89628 | 55.14985 | 185 ft | 11 kts | 121° |
| 2026-04-22 14:10 | 24.89588 | 55.15058 | 185 ft | 12 kts | 121° |
| 2026-04-22 14:10 | 24.89545 | 55.15137 | 185 ft | 13 kts | 121° |
| 2026-04-22 14:10 | 24.89497 | 55.15222 | 185 ft | 13 kts | 122° |
| 2026-04-22 14:11 | 24.89447 | 55.15312 | 185 ft | 14 kts | 121° |
| 2026-04-22 14:11 | 24.89393 | 55.15409 | 185 ft | 15 kts | 121° |
| 2026-04-22 14:11 | 24.89336 | 55.15512 | 185 ft | 16 kts | 121° |
| 2026-04-22 14:11 | 24.89280 | 55.15614 | 185 ft | 12 kts | 122° |
| 2026-04-22 14:12 | 24.89210 | 55.15618 | 185 ft | 11 kts | 208° |
| 2026-04-22 14:12 | 24.89146 | 55.15575 | 185 ft | 11 kts | 212° |
| 2026-04-22 14:12 | 24.89084 | 55.15532 | 185 ft | 10 kts | 212° |
| 2026-04-22 14:12 | 24.89026 | 55.15492 | 185 ft | 10 kts | 212° |
| 2026-04-22 14:13 | 24.88968 | 55.15452 | 185 ft | 9 kts | 212° |
| 2026-04-22 14:13 | 24.88914 | 55.15415 | 185 ft | 9 kts | 211° |
| 2026-04-22 14:13 | 24.88862 | 55.15380 | 185 ft | 9 kts | 211° |
| 2026-04-22 14:13 | 24.88811 | 55.15346 | 185 ft | 8 kts | 211° |
| 2026-04-22 14:14 | 24.88786 | 55.15299 | 185 ft | 6 kts | 283° |
| 2026-04-22 14:14 | 24.88797 | 55.15273 | 185 ft | 4 kts | 298° |
| 2026-04-22 14:14 | 24.88809 | 55.15249 | 185 ft | 3 kts | 300° |
| 2026-04-22 14:14 | 24.88818 | 55.15233 | 185 ft | 1 kts | 301° |
| 2026-04-22 14:15 | 24.88820 | 55.15230 | 185 ft | 0 kts | 301° |